Time;durP1;ratioP1;P1;durP2;ratioP2;P2;SDS_P1;SDS_P2;PMS_P1;PMS_P2;Temp;Humidity;BMP_temperature;BMP_pressure;BME280_temperature;BME280_humidity;BME280_pressure;Samples;Min_cycle;Max_cycle;Signal;HPM_P1;HPM_P2
2022/05/18 00:01:11;;;;;;;2.00;1.70;;;24.30;81.80;;;;;;5051533;28;20765;-59
2022/05/18 00:03:41;;;;;;;2.10;2.00;;;24.30;81.60;;;;;;5051496;28;20467;-59
2022/05/18 00:06:08;;;;;;;1.90;1.80;;;24.30;81.60;;;;;;5051099;28;20822;-59
2022/05/18 00:08:36;;;;;;;2.27;2.13;;;24.30;81.80;;;;;;5051006;28;20444;-56
2022/05/18 00:11:05;;;;;;;2.30;2.20;;;24.30;81.90;;;;;;5051466;28;20484;-60
2022/05/18 00:13:32;;;;;;;1.90;1.80;;;24.30;82.00;;;;;;5051272;28;20825;-59
2022/05/18 00:16:00;;;;;;;2.23;2.13;;;24.30;82.10;;;;;;5051487;28;20451;-56
2022/05/18 00:18:26;;;;;;;2.20;2.00;;;24.30;82.10;;;;;;5050943;28;20982;-58
2022/05/18 00:20:53;;;;;;;2.43;2.33;;;24.30;82.20;;;;;;5051444;28;20451;-55
2022/05/18 00:23:20;;;;;;;1.60;1.50;;;24.30;82.40;;;;;;5051221;28;20475;-53
2022/05/18 00:25:47;;;;;;;1.70;1.70;;;24.30;82.60;;;;;;5051378;28;20463;-58
2022/05/18 00:28:13;;;;;;;1.97;1.87;;;24.20;82.60;;;;;;5050763;28;20455;-58
2022/05/18 00:30:40;;;;;;;1.70;1.60;;;24.20;82.80;;;;;;5050914;28;20478;-59
2022/05/18 00:33:10;;;;;;;2.50;2.30;;;24.20;82.80;;;;;;5051302;28;20529;-56
2022/05/18 00:35:39;;;;;;;2.23;2.13;;;24.20;82.90;;;;;;5051474;28;20822;-55
2022/05/18 00:38:07;;;;;;;2.03;1.93;;;24.20;83.10;;;;;;5050540;28;20444;-59
2022/05/18 00:40:34;;;;;;;2.27;2.07;;;24.20;83.30;;;;;;5051249;28;21010;-57
2022/05/18 00:43:01;;;;;;;2.07;1.87;;;24.20;83.30;;;;;;5051064;28;20468;-59
2022/05/18 00:45:28;;;;;;;2.03;1.93;;;24.20;83.20;;;;;;5051067;28;20448;-58
2022/05/18 00:47:55;;;;;;;2.03;2.00;;;24.20;83.50;;;;;;5050704;28;20834;-60
2022/05/18 00:50:28;;;;;;;1.93;1.93;;;24.20;83.60;;;;;;5051008;28;20471;-60
2022/05/18 00:53:01;;;;;;;2.17;2.07;;;24.20;83.70;;;;;;5050982;28;20468;-58
2022/05/18 00:55:31;;;;;;;1.53;1.53;;;24.20;83.90;;;;;;5051171;28;20455;-59
2022/05/18 00:58:07;;;;;;;2.43;2.23;;;24.20;83.90;;;;;;5050611;28;20452;-60
2022/05/18 01:00:35;;;;;;;2.50;2.40;;;24.20;84.10;;;;;;5051069;28;20459;-56
2022/05/18 01:03:09;;;;;;;2.53;2.40;;;24.20;84.10;;;;;;5050877;28;20460;-57
2022/05/18 01:05:40;;;;;;;3.67;2.50;;;24.20;84.30;;;;;;5051017;28;20536;-56
2022/05/18 01:08:07;;;;;;;3.20;2.20;;;24.20;84.40;;;;;;5050487;28;20471;-57
2022/05/18 01:10:34;;;;;;;2.00;1.90;;;24.20;84.50;;;;;;5050896;28;20590;-57
2022/05/18 01:13:02;;;;;;;2.30;2.20;;;24.20;84.50;;;;;;5050809;28;20464;-57
2022/05/18 01:15:32;;;;;;;2.37;2.20;;;24.20;84.60;;;;;;5050830;28;20448;-57
2022/05/18 01:18:01;;;;;;;2.30;2.20;;;24.10;84.60;;;;;;5053205;28;20556;-60
2022/05/18 01:20:33;;;;;;;2.27;2.17;;;24.10;84.70;;;;;;5054169;28;20498;-57
2022/05/18 01:23:13;;;;;;;2.03;1.80;;;24.10;84.80;;;;;;5054380;28;20846;-57
2022/05/18 01:25:59;;;;;;;2.53;2.43;;;24.10;84.80;;;;;;5054299;28;20958;-55
2022/05/18 01:28:32;;;;;;;2.20;2.10;;;24.10;84.90;;;;;;5034268;28;20817;-57
2022/05/18 01:30:59;;;;;;;2.50;2.40;;;24.10;85.10;;;;;;5034369;28;20488;-58
2022/05/18 01:33:26;;;;;;;2.40;2.30;;;24.10;85.10;;;;;;5034297;28;20487;-59
2022/05/18 01:35:54;;;;;;;2.00;1.97;;;24.10;85.20;;;;;;5034163;28;20943;-59
2022/05/18 01:38:20;;;;;;;2.43;2.23;;;24.10;85.20;;;;;;5053397;28;20452;-58
2022/05/18 01:40:56;;;;;;;2.13;2.03;;;24.10;85.40;;;;;;5053977;28;20444;-57
2022/05/18 01:43:28;;;;;;;2.67;2.57;;;24.10;85.50;;;;;;5054051;28;20581;-56
2022/05/18 01:45:58;;;;;;;2.03;1.93;;;24.10;85.60;;;;;;5054069;28;20444;-57
2022/05/18 01:48:29;;;;;;;1.97;1.87;;;24.10;85.60;;;;;;5053546;28;20828;-58
2022/05/18 01:50:59;;;;;;;4.43;4.13;;;24.10;85.60;;;;;;5053823;28;20487;-59
2022/05/18 01:53:26;;;;;;;2.50;2.40;;;24.10;85.70;;;;;;5053798;28;20464;-58
2022/05/18 01:55:53;;;;;;;2.00;1.90;;;24.10;85.80;;;;;;5053720;28;20440;-59
2022/05/18 01:58:19;;;;;;;2.20;2.10;;;24.10;85.70;;;;;;5053532;28;20618;-58
2022/05/18 02:00:47;;;;;;;2.50;2.40;;;24.10;85.80;;;;;;5053652;28;20935;-58
2022/05/18 02:03:16;;;;;;;2.10;2.00;;;24.10;85.70;;;;;;5053541;28;20473;-58
2022/05/18 02:05:43;;;;;;;2.00;1.90;;;24.10;85.60;;;;;;5053648;28;20455;-59
2022/05/18 02:08:12;;;;;;;2.10;2.00;;;24.10;85.80;;;;;;5052051;28;20440;-60
2022/05/18 02:10:39;;;;;;;2.20;2.10;;;24.10;85.90;;;;;;5033524;28;20477;-54
2022/05/18 02:13:06;;;;;;;5.30;2.30;;;24.10;86.00;;;;;;5033514;28;20473;-57
2022/05/18 02:15:34;;;;;;;2.40;2.03;;;24.10;86.10;;;;;;5033572;28;20820;-57
2022/05/18 02:18:00;;;;;;;2.37;2.27;;;24.00;85.90;;;;;;5048606;28;20452;-57
2022/05/18 02:20:28;;;;;;;2.20;2.03;;;24.00;85.90;;;;;;5052812;28;20944;-57
2022/05/18 02:22:56;;;;;;;3.00;2.70;;;24.00;86.60;;;;;;5053150;28;20472;-54
2022/05/18 02:25:23;;;;;;;2.53;2.43;;;24.00;86.10;;;;;;5053243;28;20543;-60
2022/05/18 02:27:50;;;;;;;3.23;2.60;;;24.00;86.10;;;;;;5052337;28;20448;-58
2022/05/18 02:30:17;;;;;;;2.90;2.80;;;24.00;86.10;;;;;;5053105;28;20893;-58
2022/05/18 02:32:44;;;;;;;2.57;2.43;;;24.00;86.00;;;;;;5053004;28;20468;-57
2022/05/18 02:35:11;;;;;;;2.00;1.90;;;24.00;86.30;;;;;;5052985;28;20444;-59
2022/05/18 02:37:39;;;;;;;2.47;2.37;;;24.00;86.20;;;;;;5052635;28;20452;-60
2022/05/18 02:40:08;;;;;;;3.50;2.00;;;24.00;86.20;;;;;;5052953;28;20440;-55
2022/05/18 02:42:35;;;;;;;2.27;2.10;;;24.00;86.50;;;;;;5052809;28;20475;-59
2022/05/18 02:45:03;;;;;;;2.53;2.43;;;24.00;86.60;;;;;;5053024;28;20814;-58
2022/05/18 02:47:30;;;;;;;1.90;1.80;;;24.00;86.70;;;;;;5052416;28;20448;-58
2022/05/18 02:49:57;;;;;;;2.70;2.60;;;23.90;86.60;;;;;;5052613;28;20483;-54
2022/05/18 02:52:23;;;;;;;4.90;2.20;;;23.90;86.60;;;;;;5052747;28;20494;-53
2022/05/18 02:57:50;;;;;;;4.37;1.83;;;23.90;86.60;;;;;;4971545;28;20450;-59
2022/05/18 03:00:17;;;;;;;2.70;2.10;;;23.90;86.70;;;;;;4971583;28;20451;-60
2022/05/18 03:02:44;;;;;;;2.10;2.10;;;23.90;86.60;;;;;;5006476;28;20460;-57
2022/05/18 03:05:11;;;;;;;2.37;2.27;;;23.90;86.70;;;;;;5052258;28;20441;-57
2022/05/18 03:07:38;;;;;;;2.47;2.37;;;23.90;86.70;;;;;;5052150;28;20440;-59
2022/05/18 03:10:07;;;;;;;2.67;2.47;;;23.90;86.70;;;;;;5052315;28;20846;-56
2022/05/18 03:12:34;;;;;;;2.43;2.33;;;23.90;86.70;;;;;;5052213;28;20526;-59
2022/05/18 03:15:01;;;;;;;3.07;2.97;;;23.90;86.80;;;;;;5052063;28;20452;-57
2022/05/18 03:17:28;;;;;;;2.90;2.70;;;23.90;86.80;;;;;;5051993;28;20452;-59
2022/05/18 03:19:55;;;;;;;2.00;1.90;;;23.90;86.70;;;;;;5052208;28;20444;-56
2022/05/18 03:25:08;;;;;;;2.83;2.63;;;23.90;86.90;;;;;;5052313;28;20496;-58
2022/05/18 03:27:34;;;;;;;2.50;2.40;;;23.90;87.10;;;;;;5051852;28;20953;-59
2022/05/18 03:30:01;;;;;;;2.00;1.90;;;23.90;87.10;;;;;;5051698;28;20441;-57
2022/05/18 03:32:28;;;;;;;2.53;2.40;;;23.90;87.40;;;;;;5051892;28;20471;-59
2022/05/18 03:34:54;;;;;;;2.43;2.33;;;23.80;87.30;;;;;;5051916;28;20470;-58
2022/05/18 03:37:21;;;;;;;2.90;2.70;;;23.90;87.50;;;;;;5051809;28;20807;-57
2022/05/18 03:39:48;;;;;;;3.13;2.93;;;23.90;87.20;;;;;;5050909;28;20459;-58
2022/05/18 03:42:16;;;;;;;2.83;2.53;;;23.80;87.10;;;;;;5051754;28;20471;-56
2022/05/18 03:44:43;;;;;;;6.83;2.83;;;23.80;87.10;;;;;;5051773;28;20448;-58
2022/05/18 03:47:09;;;;;;;2.53;2.33;;;23.90;87.10;;;;;;5051556;28;20451;-57
2022/05/18 03:49:37;;;;;;;2.47;2.37;;;23.80;87.20;;;;;;5051688;28;20563;-56
2022/05/18 03:52:04;;;;;;;2.70;2.60;;;23.80;87.20;;;;;;5031593;28;20495;-59
2022/05/18 03:54:31;;;;;;;2.60;2.40;;;23.80;87.10;;;;;;5031699;28;20445;-60
2022/05/18 03:56:58;;;;;;;4.97;3.07;;;23.80;87.10;;;;;;5031511;28;20445;-58
2022/05/18 03:59:26;;;;;;;2.27;2.17;;;23.90;87.30;;;;;;5031823;28;20504;-57
2022/05/18 04:01:53;;;;;;;2.23;2.13;;;23.80;87.00;;;;;;5050102;28;20469;-60
2022/05/18 04:04:20;;;;;;;3.40;3.20;;;23.80;87.00;;;;;;5051560;28;20812;-55
2022/05/18 04:06:46;;;;;;;2.90;2.70;;;23.80;87.40;;;;;;5051433;28;20811;-59
2022/05/18 04:09:13;;;;;;;2.70;2.60;;;23.80;88.30;;;;;;5051695;28;20534;-59
2022/05/18 04:11:41;;;;;;;3.90;2.97;;;23.80;87.80;;;;;;5051083;28;20571;-59
2022/05/18 04:14:07;;;;;;;2.83;2.63;;;23.80;88.20;;;;;;5051448;28;20815;-58
2022/05/18 04:16:36;;;;;;;2.60;2.43;;;23.80;88.30;;;;;;5051396;28;20441;-60
2022/05/18 04:19:02;;;;;;;2.97;2.73;;;23.80;88.30;;;;;;5051322;28;20451;-57
2022/05/18 04:21:30;;;;;;;2.57;2.43;;;23.80;88.30;;;;;;5051038;28;20444;-60
2022/05/18 04:23:57;;;;;;;2.63;2.47;;;23.80;88.40;;;;;;5110368;22;20494;-58
2022/05/18 04:26:24;;;;;;;2.67;2.57;;;23.80;88.60;;;;;;5091753;28;20434;-57
2022/05/18 04:28:51;;;;;;;4.80;2.30;;;23.80;88.50;;;;;;5091553;28;20447;-54
2022/05/18 04:31:18;;;;;;;2.47;2.37;;;23.80;88.30;;;;;;5091189;28;20481;-55
2022/05/18 04:33:46;;;;;;;2.20;1.80;;;23.80;88.50;;;;;;5091536;28;20470;-55
2022/05/18 04:36:13;;;;;;;2.73;2.53;;;23.80;88.60;;;;;;5091748;28;20648;-55
2022/05/18 04:38:40;;;;;;;2.33;2.23;;;23.80;88.80;;;;;;5086067;28;20451;-56
2022/05/18 04:41:06;;;;;;;2.67;2.50;;;23.80;88.80;;;;;;5073009;28;20436;-55
2022/05/18 04:43:34;;;;;;;2.50;2.40;;;23.80;88.80;;;;;;5091368;28;20474;-59
2022/05/18 04:46:01;;;;;;;3.37;2.17;;;23.80;88.90;;;;;;5091713;28;20940;-55
2022/05/18 04:48:31;;;;;;;2.77;2.23;;;23.80;88.90;;;;;;5087950;28;20443;-55
2022/05/18 04:51:00;;;;;;;3.43;3.00;;;23.80;89.80;;;;;;5072672;28;20483;-55
2022/05/18 04:53:26;;;;;;;4.10;3.53;;;23.80;91.00;;;;;;5075255;28;20478;-56
2022/05/18 04:55:53;;;;;;;3.23;2.93;;;23.90;91.10;;;;;;5077038;28;20444;-61
2022/05/18 04:58:20;;;;;;;6.80;4.43;;;23.90;92.20;;;;;;5078566;28;20747;-59
2022/05/18 05:00:49;;;;;;;5.47;3.10;;;24.00;95.60;;;;;;5095850;28;20438;-58
2022/05/18 05:03:15;;;;;;;5.93;4.50;;;24.00;94.80;;;;;;5095671;28;20468;-58
2022/05/18 05:05:42;;;;;;;4.50;4.07;;;24.10;93.70;;;;;;5095451;28;20476;-59
2022/05/18 05:08:10;;;;;;;7.97;4.03;;;24.00;94.10;;;;;;5096069;28;20442;-59
2022/05/18 05:10:37;;;;;;;4.20;3.70;;;24.00;94.20;;;;;;5095411;28;20481;-59
2022/05/18 05:13:04;;;;;;;8.03;4.43;;;24.00;94.00;;;;;;5095466;28;20550;-61
2022/05/18 05:15:31;;;;;;;3.50;3.20;;;24.00;93.80;;;;;;5095499;28;20442;-59
2022/05/18 05:17:57;;;;;;;6.83;4.00;;;24.00;93.10;;;;;;5095334;28;20444;-60
2022/05/18 05:20:25;;;;;;;5.47;3.70;;;24.00;93.10;;;;;;5095312;28;20509;-58
2022/05/18 05:22:51;;;;;;;4.53;3.67;;;24.00;93.00;;;;;;5095190;28;20466;-59
2022/05/18 05:25:19;;;;;;;4.27;3.63;;;24.00;92.90;;;;;;5094629;28;20442;-60
2022/05/18 05:27:46;;;;;;;2.97;2.77;;;24.00;92.70;;;;;;5094665;28;20446;-58
2022/05/18 05:30:14;;;;;;;2.90;2.73;;;24.00;92.30;;;;;;5095677;28;20442;-61
2022/05/18 05:32:42;;;;;;;7.20;3.20;;;24.00;92.40;;;;;;5094991;28;20482;-59
2022/05/18 05:35:11;;;;;;;3.03;2.70;;;23.90;92.40;;;;;;5095217;28;20441;-59
2022/05/18 05:37:37;;;;;;;3.03;2.73;;;24.00;92.00;;;;;;5095081;28;20449;-60
2022/05/18 05:40:06;;;;;;;3.73;2.90;;;24.00;91.80;;;;;;5095331;28;20446;-59
2022/05/18 05:42:34;;;;;;;2.57;2.37;;;24.00;91.60;;;;;;5095486;28;20465;-60
2022/05/18 05:45:00;;;;;;;2.53;2.40;;;24.00;91.50;;;;;;5095414;28;20446;-59
2022/05/18 05:47:27;;;;;;;2.60;2.40;;;24.00;91.40;;;;;;5095036;28;20465;-58
2022/05/18 05:49:54;;;;;;;3.27;2.47;;;24.00;91.40;;;;;;5094834;28;20446;-59
2022/05/18 05:52:21;;;;;;;2.30;2.10;;;24.00;91.20;;;;;;5095124;28;20486;-58
2022/05/18 05:54:47;;;;;;;2.50;2.40;;;24.00;90.90;;;;;;5095435;28;20464;-60
2022/05/18 05:57:14;;;;;;;2.30;2.10;;;24.00;90.80;;;;;;5095221;28;20442;-58
2022/05/18 05:59:42;;;;;;;2.20;2.10;;;24.00;90.60;;;;;;5094726;28;20453;-59
2022/05/18 06:02:11;;;;;;;2.37;2.23;;;24.00;90.40;;;;;;5094040;28;20817;-60
2022/05/18 06:04:39;;;;;;;3.10;2.80;;;24.00;90.50;;;;;;5094992;28;20447;-58
2022/05/18 06:07:05;;;;;;;3.40;2.30;;;24.00;90.20;;;;;;5094699;28;20971;-56
2022/05/18 06:09:32;;;;;;;2.63;2.43;;;24.00;90.30;;;;;;5094480;28;20975;-59
2022/05/18 06:11:59;;;;;;;3.17;2.20;;;24.00;90.30;;;;;;5094930;28;21051;-58
2022/05/18 06:14:26;;;;;;;3.00;2.80;;;24.00;90.10;;;;;;5094771;28;20449;-59
2022/05/18 06:16:54;;;;;;;2.40;2.30;;;24.00;90.40;;;;;;5095254;28;20442;-59
2022/05/18 06:19:21;;;;;;;4.40;2.70;;;24.00;90.10;;;;;;5094319;28;20950;-57
2022/05/18 06:21:49;;;;;;;2.97;2.63;;;24.00;90.20;;;;;;5094896;28;20787;-59
2022/05/18 06:24:15;;;;;;;2.93;2.23;;;24.00;90.00;;;;;;5094024;28;20464;-59
2022/05/18 06:26:44;;;;;;;2.53;2.40;;;24.00;90.00;;;;;;5094567;28;20445;-58
2022/05/18 06:29:11;;;;;;;2.00;1.90;;;24.00;90.20;;;;;;5094072;28;20450;-60
2022/05/18 06:31:37;;;;;;;2.50;2.30;;;24.00;90.10;;;;;;5093813;28;20482;-57
2022/05/18 06:34:05;;;;;;;2.40;2.27;;;24.00;89.80;;;;;;5094644;28;20462;-58
2022/05/18 06:36:34;;;;;;;2.20;2.10;;;24.00;90.30;;;;;;5094722;28;20442;-56
2022/05/18 06:39:01;;;;;;;2.00;1.77;;;24.00;90.20;;;;;;5093784;28;20446;-55
2022/05/18 06:41:28;;;;;;;1.63;1.53;;;24.00;89.70;;;;;;5094140;28;20442;-59
2022/05/18 06:43:56;;;;;;;3.30;2.30;;;24.00;89.90;;;;;;5094074;28;20462;-58
2022/05/18 06:46:25;;;;;;;2.10;1.97;;;24.00;89.60;;;;;;5093928;28;20442;-59
2022/05/18 06:48:52;;;;;;;2.10;2.00;;;24.00;90.00;;;;;;5093854;28;20473;-59
2022/05/18 06:51:22;;;;;;;2.70;2.40;;;24.00;89.70;;;;;;5094137;28;20488;-59
2022/05/18 06:53:51;;;;;;;2.43;2.33;;;24.00;90.00;;;;;;5094373;28;21008;-59
2022/05/18 06:56:19;;;;;;;2.30;2.20;;;24.00;89.60;;;;;;5094185;28;20453;-59
2022/05/18 06:58:46;;;;;;;2.30;2.20;;;24.00;89.80;;;;;;5093950;28;20820;-54
2022/05/18 07:01:13;;;;;;;1.90;1.80;;;24.00;89.20;;;;;;5094067;28;20835;-60
2022/05/18 07:03:40;;;;;;;2.30;1.93;;;24.00;89.60;;;;;;5093417;28;20466;-59
2022/05/18 07:06:07;;;;;;;1.90;1.83;;;24.00;89.60;;;;;;5093454;28;20447;-58
2022/05/18 07:08:36;;;;;;;2.17;2.07;;;24.00;89.60;;;;;;5093084;28;20504;-59
2022/05/18 07:11:04;;;;;;;2.17;1.97;;;24.00;89.30;;;;;;5093404;28;20465;-59
2022/05/18 07:13:30;;;;;;;2.00;1.90;;;24.10;89.00;;;;;;5093277;28;20513;-57
2022/05/18 07:15:57;;;;;;;2.63;2.03;;;24.10;89.00;;;;;;5092948;28;20442;-59
2022/05/18 07:18:29;;;;;;;2.63;2.50;;;24.10;89.00;;;;;;5093337;28;20457;-58
2022/05/18 07:20:56;;;;;;;2.23;2.00;;;24.10;89.40;;;;;;5092929;28;20446;-59
2022/05/18 07:23:23;;;;;;;2.53;2.33;;;24.10;89.40;;;;;;5093027;28;20470;-58
2022/05/18 07:25:52;;;;;;;2.03;1.93;;;24.10;89.00;;;;;;5093583;28;20450;-59
2022/05/18 07:28:19;;;;;;;1.83;1.80;;;24.10;88.90;;;;;;5093092;28;20450;-57
2022/05/18 07:30:46;;;;;;;2.73;2.40;;;24.10;88.60;;;;;;5093350;28;20449;-58
2022/05/18 07:33:13;;;;;;;2.13;2.03;;;24.10;89.40;;;;;;5092819;28;20490;-59
2022/05/18 07:35:39;;;;;;;2.30;2.20;;;24.10;89.10;;;;;;5093069;28;20443;-58
2022/05/18 07:38:06;;;;;;;2.23;2.13;;;24.10;89.00;;;;;;5093299;28;20462;-60
2022/05/18 07:40:34;;;;;;;2.00;1.90;;;24.10;88.90;;;;;;5093347;28;20443;-58
2022/05/18 07:43:03;;;;;;;2.10;1.97;;;24.10;88.90;;;;;;5093007;28;20519;-59
2022/05/18 07:45:30;;;;;;;2.43;2.33;;;24.10;89.40;;;;;;5093350;28;20450;-60
2022/05/18 07:47:56;;;;;;;2.70;2.40;;;24.10;89.00;;;;;;5092556;28;20453;-59
2022/05/18 07:50:25;;;;;;;3.13;2.93;;;24.10;88.70;;;;;;5092847;28;20937;-58
2022/05/18 07:52:57;;;;;;;2.60;2.40;;;24.10;88.60;;;;;;5092718;28;20485;-59
2022/05/18 07:55:24;;;;;;;2.27;2.17;;;24.10;88.70;;;;;;5093760;28;20457;-60
2022/05/18 07:57:51;;;;;;;2.00;1.90;;;24.10;88.60;;;;;;5097557;28;20751;-60
2022/05/18 08:00:21;;;;;;;1.90;1.80;;;24.10;88.30;;;;;;5097185;28;20442;-61
2022/05/18 08:02:47;;;;;;;2.00;1.90;;;24.10;88.30;;;;;;5097635;28;20458;-61
2022/05/18 08:05:14;;;;;;;2.17;2.07;;;24.10;88.30;;;;;;5097290;28;20446;-61
2022/05/18 08:07:45;;;;;;;3.20;3.00;;;24.10;88.50;;;;;;5097159;28;20434;-61
2022/05/18 08:15:46;;;;;;;2.07;2.07;;;24.10;87.90;;;;;;5097157;28;20430;-61
2022/05/18 08:18:15;;;;;;;2.17;2.07;;;24.10;88.60;;;;;;5097337;28;20499;-59
2022/05/18 08:20:42;;;;;;;1.70;1.60;;;24.20;87.70;;;;;;5096811;28;20508;-59
2022/05/18 08:23:09;;;;;;;1.90;1.80;;;24.20;87.50;;;;;;5095762;28;20466;-59
2022/05/18 08:25:37;;;;;;;1.70;1.70;;;24.20;87.90;;;;;;5095688;28;20446;-59
2022/05/18 08:28:05;;;;;;;2.27;2.17;;;24.20;87.60;;;;;;5096992;28;20443;-60
2022/05/18 08:30:32;;;;;;;2.60;2.50;;;24.20;87.30;;;;;;5096735;28;20470;-59
2022/05/18 08:33:02;;;;;;;2.00;1.83;;;24.20;87.30;;;;;;5096507;28;20488;-59
2022/05/18 08:35:30;;;;;;;2.20;2.10;;;24.20;87.30;;;;;;5096675;28;20450;-59
2022/05/18 08:37:58;;;;;;;2.77;2.57;;;24.20;87.20;;;;;;5096585;28;20453;-59
2022/05/18 08:40:39;;;;;;;2.10;2.00;;;24.20;87.20;;;;;;5096749;28;20453;-56
2022/05/18 08:43:07;;;;;;;2.20;2.10;;;24.20;86.90;;;;;;5096263;28;20458;-58
2022/05/18 08:45:37;;;;;;;2.30;1.97;;;24.20;86.80;;;;;;5096224;28;20446;-58
2022/05/18 08:48:09;;;;;;;2.37;2.27;;;24.20;86.80;;;;;;5096221;28;20442;-58
2022/05/18 08:50:38;;;;;;;2.43;2.30;;;24.20;86.80;;;;;;5096376;28;20870;-58
2022/05/18 08:53:18;;;;;;;2.37;2.17;;;24.20;86.60;;;;;;5096203;28;20509;-60
2022/05/18 08:55:54;;;;;;;2.50;2.03;;;24.20;86.50;;;;;;5096136;28;20450;-58
2022/05/18 08:58:33;;;;;;;2.07;1.97;;;24.20;86.50;;;;;;5096307;28;20948;-58
2022/05/18 09:01:04;;;;;;;1.87;1.87;;;24.30;86.70;;;;;;5096012;28;20449;-59
2022/05/18 09:03:37;;;;;;;2.30;2.20;;;24.20;86.50;;;;;;5095880;28;20503;-60
2022/05/18 09:06:11;;;;;;;1.97;1.87;;;24.20;86.30;;;;;;5095718;28;20453;-59
2022/05/18 09:08:41;;;;;;;2.00;1.90;;;24.20;86.40;;;;;;5095672;28;20443;-58
2022/05/18 09:11:22;;;;;;;2.80;2.60;;;24.20;86.30;;;;;;5095834;28;20446;-60
2022/05/18 09:13:48;;;;;;;2.30;2.20;;;24.20;86.40;;;;;;5095571;28;20492;-60
2022/05/18 09:16:27;;;;;;;1.90;1.80;;;24.30;86.30;;;;;;5095140;28;20449;-58
2022/05/18 09:19:03;;;;;;;1.90;1.80;;;24.30;86.40;;;;;;5095051;28;20900;-59
2022/05/18 09:21:40;;;;;;;2.10;2.00;;;24.30;86.70;;;;;;5095424;28;20449;-58
2022/05/18 09:24:19;;;;;;;2.10;2.00;;;24.30;86.50;;;;;;5095477;28;20980;-59
2022/05/18 09:26:59;;;;;;;1.73;1.73;;;24.30;86.40;;;;;;5095087;28;20442;-58
2022/05/18 09:29:32;;;;;;;1.70;1.70;;;24.30;86.30;;;;;;5095360;28;20450;-57
2022/05/18 09:32:19;;;;;;;2.13;2.00;;;24.30;86.00;;;;;;5095602;28;20482;-59
2022/05/18 09:35:15;;;;;;;2.30;2.20;;;24.30;85.70;;;;;;5095670;28;20449;-59
2022/05/18 09:37:47;;;;;;;2.17;2.07;;;24.30;85.50;;;;;;5094125;28;20442;-60
2022/05/18 09:40:19;;;;;;;1.93;1.83;;;24.30;85.50;;;;;;5095284;28;20446;-59
2022/05/18 09:42:53;;;;;;;2.53;2.43;;;24.30;85.70;;;;;;5095186;28;20466;-59
2022/05/18 09:45:23;;;;;;;1.73;1.70;;;24.30;85.70;;;;;;5095457;28;20800;-59
2022/05/18 09:47:53;;;;;;;2.13;2.03;;;24.30;85.50;;;;;;5095128;28;20438;-60
2022/05/18 09:50:22;;;;;;;3.53;1.60;;;24.30;85.50;;;;;;5095023;28;20525;-59
2022/05/18 09:52:49;;;;;;;2.07;1.97;;;24.30;85.40;;;;;;5095147;28;20885;-60
2022/05/18 09:55:20;;;;;;;3.63;2.00;;;24.30;85.20;;;;;;5095545;28;20941;-58
2022/05/18 09:57:52;;;;;;;2.20;2.10;;;24.40;85.50;;;;;;5094717;28;20457;-59
2022/05/18 10:00:25;;;;;;;2.10;1.97;;;24.40;85.40;;;;;;5095114;28;20438;-58
2022/05/18 10:08:34;;;;;;;2.27;2.17;;;24.40;85.00;;;;;;5093229;28;20756;-60
2022/05/18 10:11:04;;;;;;;2.60;2.47;;;24.40;85.00;;;;;;5094653;28;20438;-58
2022/05/18 10:13:34;;;;;;;2.00;1.90;;;24.40;85.80;;;;;;5094066;28;21015;-58
2022/05/18 10:16:05;;;;;;;5.70;2.40;;;24.40;85.00;;;;;;5095378;28;20944;-61
2022/05/18 10:18:41;;;;;;;2.47;2.33;;;24.40;85.10;;;;;;5094162;28;20768;-59
2022/05/18 10:21:19;;;;;;;1.63;1.63;;;24.40;85.10;;;;;;5094872;28;20451;-58
2022/05/18 10:23:55;;;;;;;1.90;1.80;;;24.40;85.40;;;;;;5105673;22;20493;-57
2022/05/18 10:26:26;;;;;;;2.90;2.17;;;24.40;85.50;;;;;;5073283;28;20746;-56
2022/05/18 10:28:59;;;;;;;2.10;2.00;;;24.40;85.60;;;;;;5073088;28;20439;-55
2022/05/18 10:31:31;;;;;;;2.40;2.30;;;24.40;85.70;;;;;;5073264;28;20447;-57
2022/05/18 10:34:18;;;;;;;2.70;2.13;;;24.40;85.40;;;;;;5058312;28;20484;-56
2022/05/18 10:36:48;;;;;;;1.80;1.70;;;24.40;85.20;;;;;;5053248;28;20448;-56
2022/05/18 10:39:35;;;;;;;2.07;2.07;;;24.40;85.30;;;;;;5053078;28;20498;-57
2022/05/18 10:42:08;;;;;;;1.90;1.80;;;24.40;85.30;;;;;;5053008;28;20444;-57
2022/05/18 10:44:36;;;;;;;2.10;1.90;;;24.50;85.40;;;;;;5052929;28;20824;-56
2022/05/18 10:47:26;;;;;;;1.90;1.80;;;24.50;85.20;;;;;;5052794;28;20542;-58
2022/05/18 10:50:09;;;;;;;1.97;1.97;;;24.50;85.10;;;;;;5052712;28;20448;-57
2022/05/18 10:52:37;;;;;;;1.93;1.83;;;24.50;85.00;;;;;;5052630;28;20491;-58
2022/05/18 10:55:14;;;;;;;1.83;1.80;;;24.50;84.80;;;;;;5052757;28;20444;-57
2022/05/18 10:57:42;;;;;;;2.37;2.27;;;24.50;84.60;;;;;;5052545;28;20776;-58
2022/05/18 11:00:11;;;;;;;2.00;1.90;;;24.50;84.80;;;;;;5052522;28;20451;-59
2022/05/18 11:02:48;;;;;;;2.27;2.17;;;24.50;84.10;;;;;;5052494;28;20471;-59
2022/05/18 11:05:28;;;;;;;2.00;1.90;;;24.50;83.80;;;;;;5052477;28;20524;-57
2022/05/18 11:07:56;;;;;;;1.80;1.70;;;24.50;83.60;;;;;;5052126;28;20444;-58
2022/05/18 11:10:25;;;;;;;2.10;1.87;;;24.60;83.80;;;;;;5052322;28;20958;-56
2022/05/18 11:13:01;;;;;;;2.30;2.20;;;24.50;83.50;;;;;;5052109;28;20491;-56
2022/05/18 11:15:38;;;;;;;1.97;1.87;;;24.60;83.80;;;;;;5052249;28;20982;-56
2022/05/18 11:18:14;;;;;;;2.27;2.20;;;24.50;83.50;;;;;;5052100;28;20462;-55
2022/05/18 11:20:53;;;;;;;2.10;1.90;;;24.60;83.30;;;;;;5052322;28;20903;-58
2022/05/18 11:23:35;;;;;;;2.90;1.90;;;24.60;84.00;;;;;;5051890;28;20471;-58
2022/05/18 11:26:11;;;;;;;2.63;1.90;;;24.60;83.10;;;;;;5052238;28;20877;-57
2022/05/18 11:28:46;;;;;;;1.50;1.50;;;24.60;83.00;;;;;;5051967;28;20455;-59
2022/05/18 11:31:30;;;;;;;2.10;2.00;;;24.60;82.80;;;;;;5052175;28;20803;-57
2022/05/18 11:34:03;;;;;;;3.57;1.83;;;24.60;82.80;;;;;;5051948;28;20520;-58
2022/05/18 11:36:40;;;;;;;2.00;1.80;;;24.60;82.70;;;;;;5051976;28;20944;-56
2022/05/18 11:39:20;;;;;;;2.20;2.10;;;24.60;82.50;;;;;;5051826;28;20452;-57
2022/05/18 11:42:08;;;;;;;2.00;1.90;;;24.60;83.00;;;;;;5051886;28;20448;-59
2022/05/18 11:44:46;;;;;;;1.90;1.90;;;24.60;82.10;;;;;;5051787;28;20967;-57
2022/05/18 11:47:29;;;;;;;2.33;2.20;;;24.60;81.70;;;;;;5051700;28;20444;-59
2022/05/18 11:50:08;;;;;;;2.20;2.10;;;24.70;81.60;;;;;;5051729;28;20440;-59
2022/05/18 11:52:56;;;;;;;1.50;1.50;;;24.70;81.00;;;;;;5051509;28;20468;-53
2022/05/18 11:55:33;;;;;;;1.87;1.87;;;24.70;80.50;;;;;;5051674;28;20471;-57
2022/05/18 11:58:09;;;;;;;1.97;1.87;;;24.70;80.00;;;;;;5051419;28;20451;-56
2022/05/18 12:00:52;;;;;;;1.77;1.77;;;24.70;79.50;;;;;;5051294;28;20938;-55
2022/05/18 12:03:43;;;;;;;2.87;2.77;;;24.70;79.60;;;;;;5051552;28;20828;-55
2022/05/18 12:06:28;;;;;;;3.20;2.07;;;24.80;79.50;;;;;;5051599;28;20463;-56
2022/05/18 12:09:16;;;;;;;2.70;2.50;;;24.80;79.70;;;;;;5051298;28;20454;-58
2022/05/18 12:11:54;;;;;;;2.17;2.07;;;24.80;79.80;;;;;;5051439;28;20455;-57
2022/05/18 12:14:30;;;;;;;2.10;1.97;;;24.80;78.90;;;;;;5051652;28;20491;-59
2022/05/18 12:17:02;;;;;;;1.70;1.70;;;24.80;78.80;;;;;;5051381;28;20448;-55
2022/05/18 12:19:34;;;;;;;1.77;1.77;;;24.80;78.80;;;;;;5051450;28;20448;-54
2022/05/18 12:22:06;;;;;;;2.40;2.30;;;24.80;78.70;;;;;;5051466;28;20448;-56
2022/05/18 12:24:34;;;;;;;1.73;1.73;;;24.80;78.50;;;;;;5051252;28;20476;-54
2022/05/18 12:27:04;;;;;;;1.70;1.60;;;24.80;78.40;;;;;;5051152;28;21243;-55
2022/05/18 12:29:32;;;;;;;2.40;2.30;;;24.80;78.20;;;;;;5051298;28;20452;-59
2022/05/18 12:32:00;;;;;;;2.50;2.40;;;24.90;78.30;;;;;;5051336;28;20958;-58
2022/05/18 12:34:42;;;;;;;1.57;1.57;;;24.90;77.90;;;;;;5051155;28;20860;-58
2022/05/18 12:37:22;;;;;;;2.40;2.30;;;24.90;77.60;;;;;;5051226;28;20444;-55
2022/05/18 12:39:50;;;;;;;1.70;1.70;;;24.90;77.50;;;;;;5051271;28;20812;-56
2022/05/18 12:42:23;;;;;;;2.30;2.20;;;24.90;77.40;;;;;;5051179;28;20910;-59
2022/05/18 12:44:53;;;;;;;1.83;1.73;;;24.90;77.40;;;;;;5051265;28;20455;-58
2022/05/18 12:47:25;;;;;;;1.93;1.83;;;24.90;77.10;;;;;;5051016;28;20463;-57
2022/05/18 12:49:58;;;;;;;3.13;2.93;;;25.00;76.90;;;;;;5051431;28;20855;-57
2022/05/18 12:52:45;;;;;;;2.20;2.10;;;25.00;76.60;;;;;;5051005;28;20452;-58
2022/05/18 12:55:30;;;;;;;1.90;1.63;;;25.00;76.20;;;;;;5051039;28;20439;-58
2022/05/18 12:58:24;;;;;;;2.00;2.00;;;25.00;75.90;;;;;;5050851;28;20511;-57
2022/05/18 13:00:57;;;;;;;2.20;2.20;;;25.00;75.70;;;;;;5050965;28;20444;-55
2022/05/18 13:03:36;;;;;;;2.53;2.43;;;25.00;75.50;;;;;;5051023;28;20465;-54
2022/05/18 13:06:12;;;;;;;2.40;2.30;;;25.10;75.20;;;;;;5051028;28;20440;-57
2022/05/18 13:09:00;;;;;;;1.83;1.83;;;25.10;75.10;;;;;;5050886;28;20436;-60
2022/05/18 13:11:33;;;;;;;2.00;2.00;;;25.10;75.00;;;;;;5051369;28;20443;-58
2022/05/18 13:14:24;;;;;;;3.13;3.03;;;25.10;74.80;;;;;;5054625;28;20483;-56
2022/05/18 13:17:05;;;;;;;2.13;2.03;;;25.20;74.60;;;;;;5054487;28;20455;-56
2022/05/18 13:19:35;;;;;;;2.13;2.03;;;25.20;74.40;;;;;;5054075;28;20448;-57
2022/05/18 13:22:13;;;;;;;2.20;2.10;;;25.20;74.30;;;;;;5054238;28;20858;-57